createdAt,value
2017-07-20T00:00:02.381Z,25.56
2017-07-20T00:00:42.834Z,25.56
2017-07-20T00:01:23.283Z,25.59
2017-07-20T00:02:03.736Z,25.59
2017-07-20T00:02:44.190Z,25.52
2017-07-20T00:03:24.644Z,25.54
2017-07-20T00:04:05.101Z,25.52
2017-07-20T00:04:45.555Z,25.51
2017-07-20T00:05:26.012Z,25.51
2017-07-20T00:06:06.473Z,25.52
2017-07-20T00:06:46.920Z,25.55
2017-07-20T00:07:27.377Z,25.48
2017-07-20T00:08:07.832Z,25.44
2017-07-20T00:08:48.253Z,25.48
2017-07-20T00:09:28.710Z,25.51
2017-07-20T00:10:09.159Z,25.46
2017-07-20T00:10:49.591Z,25.4
2017-07-20T00:11:30.050Z,25.36
2017-07-20T00:12:10.508Z,25.49
2017-07-20T00:12:51.088Z,25.36
2017-07-20T00:14:28.619Z,25.39
2017-07-20T00:15:09.070Z,25.39
2017-07-20T00:15:49.528Z,25.31
2017-07-20T00:16:29.995Z,25.36
2017-07-20T00:17:10.450Z,25.52
2017-07-20T00:17:50.908Z,25.43
2017-07-20T00:18:31.361Z,25.41
2017-07-20T00:19:11.814Z,25.55
2017-07-20T00:19:52.277Z,25.43
2017-07-20T00:20:32.720Z,25.51
2017-07-20T00:21:13.189Z,25.51
2017-07-20T00:21:53.621Z,25.49
2017-07-20T00:22:34.075Z,25.49
2017-07-20T00:23:14.530Z,25.48
2017-07-20T00:23:54.985Z,25.48
2017-07-20T00:24:35.435Z,25.44
2017-07-20T00:25:15.884Z,25.58
2017-07-20T00:25:56.353Z,25.55
2017-07-20T00:26:36.806Z,25.56
2017-07-20T00:27:17.262Z,25.58
2017-07-20T00:27:57.773Z,25.44
2017-07-20T00:28:38.252Z,25.51
2017-07-20T00:29:18.707Z,25.54
2017-07-20T00:29:59.162Z,25.52
2017-07-20T00:30:39.614Z,25.52
2017-07-20T00:31:20.075Z,25.51
2017-07-20T00:32:00.522Z,25.54
2017-07-20T00:32:40.975Z,25.48
2017-07-20T00:33:21.426Z,25.46
2017-07-20T00:34:01.876Z,25.52
2017-07-20T00:34:42.328Z,25.41
2017-07-20T00:35:22.786Z,25.36
2017-07-20T00:36:03.238Z,25.4
2017-07-20T00:36:43.688Z,25.41
2017-07-20T00:37:24.130Z,25.36
2017-07-20T00:38:04.584Z,25.36
2017-07-20T00:38:45.039Z,25.44
2017-07-20T00:39:25.496Z,25.39
2017-07-20T00:40:05.952Z,25.37
2017-07-20T00:40:46.414Z,25.46
2017-07-20T00:41:26.870Z,25.34
2017-07-20T00:42:07.320Z,25.33
2017-07-20T00:42:47.776Z,25.43
2017-07-20T00:43:28.228Z,25.37
2017-07-20T00:44:08.681Z,25.34
2017-07-20T00:44:49.140Z,25.44
2017-07-20T00:45:29.594Z,25.36
2017-07-20T00:46:10.049Z,25.34
2017-07-20T00:46:50.506Z,25.4
2017-07-20T00:47:30.965Z,25.33
2017-07-20T00:48:11.425Z,25.52
2017-07-20T00:48:51.885Z,25.36
2017-07-20T00:49:32.338Z,25.44
2017-07-20T00:50:12.888Z,25.37
2017-07-20T00:50:53.366Z,25.36
2017-07-20T00:51:33.794Z,25.4
2017-07-20T00:52:14.243Z,25.36
2017-07-20T00:52:54.700Z,25.41
2017-07-20T00:53:35.154Z,25.36
2017-07-20T00:54:15.821Z,25.39
2017-07-20T00:54:56.280Z,25.36
2017-07-20T00:55:36.739Z,25.4
2017-07-20T00:56:17.194Z,25.37
2017-07-20T00:56:57.647Z,25.37
2017-07-20T00:57:38.108Z,25.33
2017-07-20T00:58:18.561Z,25.34
2017-07-20T00:58:59.024Z,25.24
2017-07-20T00:59:39.479Z,25.21
2017-07-20T01:00:19.946Z,25.29
2017-07-20T01:01:00.405Z,25.34
2017-07-20T01:01:40.868Z,25.25
2017-07-20T01:02:21.311Z,25.31
2017-07-20T01:03:01.771Z,25.3
2017-07-20T01:03:42.247Z,25.31
2017-07-20T01:04:22.713Z,25.26
2017-07-20T01:05:03.165Z,25.3
2017-07-20T01:05:43.624Z,25.22
2017-07-20T01:06:24.072Z,25.29
2017-07-20T01:07:04.523Z,25.24
2017-07-20T01:07:44.976Z,25.29
2017-07-20T01:08:25.437Z,25.36
2017-07-20T01:09:05.891Z,25.29
2017-07-20T01:09:46.336Z,25.24
2017-07-20T01:10:26.795Z,25.26
2017-07-20T01:11:07.249Z,25.26
2017-07-20T01:11:47.705Z,25.33
2017-07-20T01:12:28.165Z,25.29
2017-07-20T01:13:08.610Z,25.34
2017-07-20T01:13:49.060Z,25.25
2017-07-20T01:14:29.518Z,25.36
2017-07-20T01:15:09.981Z,25.37
2017-07-20T01:15:50.433Z,25.34
2017-07-20T01:16:30.890Z,25.4
2017-07-20T01:17:11.342Z,25.34
2017-07-20T01:17:51.801Z,25.34
2017-07-20T01:18:32.254Z,25.41
2017-07-20T01:19:12.714Z,25.37
2017-07-20T01:19:53.165Z,25.41
2017-07-20T01:20:33.618Z,25.44
2017-07-20T01:21:14.075Z,25.44
2017-07-20T01:21:54.527Z,25.49
2017-07-20T01:22:34.978Z,25.46
2017-07-20T01:23:15.433Z,25.51
2017-07-20T01:23:55.886Z,25.43
2017-07-20T01:24:36.339Z,25.51
2017-07-20T01:25:16.792Z,25.52
2017-07-20T01:25:57.262Z,25.41
2017-07-20T01:26:37.720Z,25.52
2017-07-20T01:27:18.180Z,25.41
2017-07-20T01:27:58.632Z,25.46
2017-07-20T01:28:39.075Z,25.54
2017-07-20T01:29:19.534Z,25.51
2017-07-20T01:29:59.984Z,25.43
2017-07-20T01:30:40.435Z,25.55
2017-07-20T01:31:20.891Z,25.46
2017-07-20T01:32:01.346Z,25.59
2017-07-20T01:32:41.804Z,25.58
2017-07-20T01:33:22.258Z,25.54
2017-07-20T01:34:02.719Z,25.59
2017-07-20T01:34:43.161Z,25.56
2017-07-20T01:35:23.616Z,25.58
2017-07-20T01:36:04.075Z,25.59
2017-07-20T01:36:44.532Z,25.56
2017-07-20T01:37:24.973Z,25.55
2017-07-20T01:38:05.429Z,25.56
2017-07-20T01:38:45.883Z,25.55
2017-07-20T01:39:26.337Z,25.55
2017-07-20T01:40:06.788Z,25.54
2017-07-20T01:40:47.241Z,25.54
2017-07-20T01:41:27.701Z,25.59
2017-07-20T01:42:08.151Z,25.58
2017-07-20T01:42:48.612Z,25.61
2017-07-20T01:43:29.056Z,25.55
2017-07-20T01:44:09.512Z,25.48
2017-07-20T01:44:49.964Z,25.56
2017-07-20T01:45:30.423Z,25.55
2017-07-20T01:46:10.883Z,25.49
2017-07-20T01:46:51.341Z,25.55
2017-07-20T01:47:31.794Z,25.55
2017-07-20T01:48:12.249Z,25.56
2017-07-20T01:48:52.700Z,25.52
2017-07-20T01:49:33.151Z,25.41
2017-07-20T01:50:13.610Z,25.52
2017-07-20T01:50:54.063Z,25.56
2017-07-20T01:51:34.523Z,25.54
2017-07-20T01:52:14.975Z,25.52
2017-07-20T01:52:55.431Z,25.49
2017-07-20T01:53:35.883Z,25.51
2017-07-20T01:54:16.340Z,25.49
2017-07-20T01:54:56.793Z,25.52
2017-07-20T01:55:37.272Z,25.36
2017-07-20T01:56:17.715Z,25.37
2017-07-20T01:56:58.169Z,25.36
2017-07-20T01:57:38.618Z,25.4
2017-07-20T01:58:19.077Z,25.41
2017-07-20T01:58:59.528Z,25.37
2017-07-20T01:59:39.974Z,25.36
2017-07-20T02:00:20.429Z,25.4
2017-07-20T02:01:00.885Z,25.34
2017-07-20T02:01:41.337Z,25.37
2017-07-20T02:02:21.788Z,25.29
2017-07-20T02:03:02.245Z,25.25
2017-07-20T02:03:42.700Z,25.24
2017-07-20T02:04:23.155Z,25.24
2017-07-20T02:05:03.624Z,25.25
2017-07-20T02:05:44.062Z,25.26
2017-07-20T02:06:24.519Z,25.26
2017-07-20T02:07:04.969Z,25.36
2017-07-20T02:07:45.432Z,25.36
2017-07-20T02:08:25.870Z,25.29
2017-07-20T02:09:06.321Z,25.29
2017-07-20T02:09:46.778Z,25.26
2017-07-20T02:10:27.250Z,25.36
2017-07-20T02:11:07.697Z,25.25
2017-07-20T02:11:48.147Z,25.37
2017-07-20T02:12:28.597Z,25.29
2017-07-20T02:13:09.050Z,25.25
2017-07-20T02:13:49.496Z,25.29
2017-07-20T02:14:29.945Z,25.24
2017-07-20T02:15:10.400Z,25.25
2017-07-20T02:15:50.862Z,25.3
2017-07-20T02:16:31.313Z,25.3
2017-07-20T02:17:11.773Z,25.26
2017-07-20T02:17:52.222Z,25.26
2017-07-20T02:18:32.679Z,25.29
2017-07-20T02:19:13.137Z,25.16
2017-07-20T02:19:53.593Z,25.19
2017-07-20T02:20:34.043Z,25.26
2017-07-20T02:21:14.510Z,25.19
2017-07-20T02:21:54.962Z,25.11
2017-07-20T02:22:35.420Z,25.14
2017-07-20T02:23:15.865Z,25.03
2017-07-20T02:23:56.313Z,24.99
2017-07-20T02:24:36.770Z,25.03
2017-07-20T02:25:17.225Z,25.03
2017-07-20T02:25:57.685Z,25.03
2017-07-20T02:26:38.127Z,25.03
2017-07-20T02:27:18.574Z,25.07
2017-07-20T02:27:59.041Z,25.09
2017-07-20T02:28:39.480Z,25.12
2017-07-20T02:29:19.934Z,25.15
2017-07-20T02:30:00.386Z,25.14
2017-07-20T02:30:40.845Z,25.07
2017-07-20T02:31:21.298Z,25.11
2017-07-20T02:32:01.752Z,25.07
2017-07-20T02:32:42.190Z,25
2017-07-20T02:33:22.645Z,25
2017-07-20T02:34:03.110Z,25.14
2017-07-20T02:35:40.597Z,25.16
2017-07-20T02:36:21.046Z,25.09
2017-07-20T02:37:01.497Z,25.11
2017-07-20T02:37:41.954Z,25.09
2017-07-20T02:38:22.405Z,25.04
2017-07-20T02:39:02.862Z,25.15
2017-07-20T02:39:43.322Z,25.11
2017-07-20T02:40:23.773Z,25.12
2017-07-20T02:41:04.226Z,25.21
2017-07-20T02:41:44.677Z,25.16
2017-07-20T02:42:25.123Z,25.22
2017-07-20T02:43:05.574Z,25.24
2017-07-20T02:43:46.033Z,25.24
2017-07-20T02:44:26.478Z,25.15
2017-07-20T02:45:06.931Z,25.24
2017-07-20T02:45:47.391Z,25.33
2017-07-20T02:46:27.839Z,25.24
2017-07-20T02:47:08.304Z,25.22
2017-07-20T02:47:48.769Z,25.36
2017-07-20T02:48:29.219Z,25.37
2017-07-20T02:49:09.672Z,25.36
2017-07-20T02:49:50.134Z,25.39
2017-07-20T02:50:30.579Z,25.4
2017-07-20T02:51:11.034Z,25.52
2017-07-20T02:51:51.486Z,25.54
2017-07-20T02:52:31.957Z,25.46
2017-07-20T02:53:12.415Z,25.54
2017-07-20T02:53:52.869Z,25.58
2017-07-20T02:54:33.329Z,25.56
2017-07-20T02:55:13.787Z,25.51
2017-07-20T02:55:54.245Z,25.55
2017-07-20T02:56:34.716Z,25.56
2017-07-20T02:57:15.164Z,25.59
2017-07-20T02:57:55.619Z,25.58
2017-07-20T02:58:36.078Z,25.56
2017-07-20T02:59:16.526Z,25.52
2017-07-20T02:59:56.998Z,25.62
2017-07-20T03:00:37.443Z,25.54
2017-07-20T03:01:17.894Z,25.58
2017-07-20T03:01:58.348Z,25.56
2017-07-20T03:02:38.797Z,25.55
2017-07-20T03:03:19.254Z,25.61
2017-07-20T03:03:59.703Z,25.61
2017-07-20T03:04:40.159Z,25.59
2017-07-20T03:05:20.618Z,25.63
2017-07-20T03:06:01.073Z,25.59
2017-07-20T03:06:41.522Z,25.63
2017-07-20T03:07:21.980Z,25.66
2017-07-20T03:08:02.439Z,25.62
2017-07-20T03:08:42.893Z,25.67
2017-07-20T03:09:23.349Z,25.63
2017-07-20T03:10:03.803Z,25.61
2017-07-20T03:10:44.260Z,25.58
2017-07-20T03:11:24.722Z,25.61
2017-07-20T03:12:05.188Z,25.56
2017-07-20T03:12:45.624Z,25.59
2017-07-20T03:13:26.076Z,25.62
2017-07-20T03:14:06.528Z,25.62
2017-07-20T03:14:46.984Z,25.55
2017-07-20T03:15:27.433Z,25.59
2017-07-20T03:16:07.889Z,25.59
2017-07-20T03:16:48.346Z,25.56
2017-07-20T03:17:28.799Z,25.43
2017-07-20T03:18:09.322Z,25.58
2017-07-20T03:18:49.776Z,25.56
2017-07-20T03:19:30.232Z,25.61
2017-07-20T03:20:10.689Z,25.56
2017-07-20T03:20:51.151Z,25.56
2017-07-20T03:21:31.615Z,25.61
2017-07-20T03:22:12.068Z,25.56
2017-07-20T03:22:52.536Z,25.61
2017-07-20T03:23:32.992Z,25.56
2017-07-20T03:24:13.446Z,25.55
2017-07-20T03:24:53.907Z,25.59
2017-07-20T03:25:34.363Z,25.61
2017-07-20T03:26:14.841Z,25.58
2017-07-20T03:26:55.294Z,25.58
2017-07-20T03:27:35.749Z,25.56
2017-07-20T03:28:16.200Z,25.62
2017-07-20T03:28:56.661Z,25.59
2017-07-20T03:29:37.119Z,25.56
2017-07-20T03:30:17.572Z,25.63
2017-07-20T03:30:58.030Z,25.61
2017-07-20T03:31:38.480Z,25.62
2017-07-20T03:32:18.939Z,25.63
2017-07-20T03:32:59.399Z,25.63
2017-07-20T03:33:39.854Z,25.61
2017-07-20T03:34:20.313Z,25.62
2017-07-20T03:35:00.770Z,25.63
2017-07-20T03:35:41.223Z,25.62
2017-07-20T03:36:21.688Z,25.62
2017-07-20T03:37:02.147Z,25.56
2017-07-20T03:37:42.612Z,25.54
2017-07-20T03:38:23.063Z,25.58
2017-07-20T03:39:03.513Z,25.58
2017-07-20T03:39:43.969Z,25.59
2017-07-20T03:40:24.427Z,25.54
2017-07-20T03:41:04.885Z,25.61
2017-07-20T03:41:45.335Z,25.61
2017-07-20T03:42:25.790Z,25.59
2017-07-20T03:43:06.250Z,25.52
2017-07-20T03:43:46.702Z,25.59
2017-07-20T03:44:27.158Z,25.56
2017-07-20T03:45:07.612Z,25.61
2017-07-20T03:45:48.077Z,25.66
2017-07-20T03:46:28.533Z,25.63
2017-07-20T03:47:08.993Z,25.67
2017-07-20T03:47:49.453Z,25.73
2017-07-20T03:48:29.910Z,25.71
2017-07-20T03:49:10.368Z,25.71
2017-07-20T03:49:50.827Z,25.7
2017-07-20T03:50:31.302Z,25.74
2017-07-20T03:51:11.760Z,25.7
2017-07-20T03:51:52.242Z,25.73
2017-07-20T03:52:32.698Z,25.73
2017-07-20T03:53:13.157Z,25.83
2017-07-20T03:53:53.606Z,25.73
2017-07-20T03:54:34.060Z,25.83
2017-07-20T03:55:14.518Z,25.76
2017-07-20T03:55:54.990Z,25.76
2017-07-20T03:56:35.446Z,25.74
2017-07-20T03:57:15.896Z,25.76
2017-07-20T03:57:56.352Z,25.76
2017-07-20T03:58:36.802Z,25.78
2017-07-20T03:59:17.257Z,25.77
2017-07-20T03:59:57.730Z,25.78
2017-07-20T04:00:38.186Z,25.91
2017-07-20T04:01:18.633Z,25.91
2017-07-20T04:01:59.087Z,25.95
2017-07-20T04:02:39.549Z,25.95
2017-07-20T04:03:20.003Z,25.89
2017-07-20T04:04:00.457Z,25.93
2017-07-20T04:04:40.917Z,26.07
2017-07-20T04:05:21.374Z,25.99
2017-07-20T04:06:01.828Z,25.99
2017-07-20T04:06:42.331Z,25.99
2017-07-20T04:07:22.753Z,26.08
2017-07-20T04:08:03.213Z,26.01
2017-07-20T04:08:43.666Z,26.11
2017-07-20T04:09:24.122Z,26.16
2017-07-20T04:10:04.573Z,26.16
2017-07-20T04:10:45.024Z,26.18
2017-07-20T04:11:25.481Z,26.13
2017-07-20T04:12:06.021Z,26.24
2017-07-20T04:12:46.457Z,26.24
2017-07-20T04:13:26.912Z,26.24
2017-07-20T04:14:07.366Z,26.36
2017-07-20T04:14:47.814Z,26.27
2017-07-20T04:15:28.253Z,26.31
2017-07-20T04:16:08.718Z,26.33
2017-07-20T04:16:49.159Z,26.3
2017-07-20T04:17:29.615Z,26.37
2017-07-20T04:18:10.080Z,26.36
2017-07-20T04:18:50.520Z,26.36
2017-07-20T04:19:30.971Z,26.3
2017-07-20T04:20:11.612Z,26.41
2017-07-20T04:21:59.318Z,26.33
2017-07-20T04:22:39.766Z,26.44
2017-07-20T04:23:20.215Z,26.37
2017-07-20T04:24:00.684Z,26.45
2017-07-20T04:24:41.133Z,26.42
2017-07-20T04:25:21.581Z,26.39
2017-07-20T04:26:02.036Z,26.48
2017-07-20T04:26:42.513Z,26.37
2017-07-20T04:28:55.888Z,26.45
2017-07-20T04:29:36.327Z,26.45
2017-07-20T04:30:16.833Z,26.41
2017-07-20T04:30:57.196Z,26.46
2017-07-20T04:31:37.656Z,26.45
2017-07-20T04:32:18.106Z,26.48
2017-07-20T04:32:58.558Z,26.46
2017-07-20T04:33:39.019Z,26.45
2017-07-20T04:34:19.457Z,26.45
2017-07-20T04:36:12.146Z,26.46
2017-07-20T04:36:52.623Z,26.46
2017-07-20T04:37:33.080Z,26.48
2017-07-20T04:38:13.534Z,26.49
2017-07-20T04:38:53.985Z,26.48
2017-07-20T04:39:34.518Z,26.49
2017-07-20T04:40:14.962Z,26.52
2017-07-20T04:40:55.418Z,26.46
2017-07-20T04:41:35.869Z,26.48
2017-07-20T04:42:16.321Z,26.48
2017-07-20T04:42:56.765Z,26.53
2017-07-20T04:43:37.216Z,26.52
2017-07-20T04:44:17.673Z,26.55
2017-07-20T04:44:58.136Z,26.49
2017-07-20T04:45:38.667Z,26.49
2017-07-20T04:46:19.124Z,26.51
2017-07-20T04:46:59.582Z,26.53
2017-07-20T04:47:40.035Z,26.51
2017-07-20T04:48:20.501Z,26.55
2017-07-20T04:49:00.951Z,26.51
2017-07-20T04:49:41.401Z,26.46
2017-07-20T04:50:21.859Z,26.52
2017-07-20T04:51:02.310Z,26.51
2017-07-20T04:51:42.766Z,26.52
2017-07-20T04:52:23.222Z,26.55
2017-07-20T04:53:03.673Z,26.49
2017-07-20T04:53:44.131Z,26.52
2017-07-20T04:54:24.573Z,26.49
2017-07-20T04:55:05.026Z,26.51
2017-07-20T04:55:45.494Z,26.53
2017-07-20T04:56:25.942Z,26.48
2017-07-20T04:57:06.399Z,26.45
2017-07-20T04:57:46.857Z,26.49
2017-07-20T04:58:27.365Z,26.52
2017-07-20T04:59:07.802Z,26.52
2017-07-20T04:59:48.256Z,26.45
2017-07-20T05:00:28.707Z,26.52
2017-07-20T05:01:09.159Z,26.51
2017-07-20T05:01:49.617Z,26.52
2017-07-20T05:02:30.060Z,26.52
2017-07-20T05:03:10.516Z,26.49
2017-07-20T05:03:50.974Z,26.48
2017-07-20T05:04:31.433Z,26.51
2017-07-20T05:05:11.883Z,26.52
2017-07-20T05:05:52.336Z,26.51
2017-07-20T05:06:32.806Z,26.48
2017-07-20T05:07:13.328Z,26.51
2017-07-20T05:07:53.775Z,26.53
2017-07-20T05:08:34.237Z,26.49
2017-07-20T05:09:14.681Z,26.51
2017-07-20T05:09:55.122Z,26.51
2017-07-20T05:10:35.577Z,26.46
2017-07-20T05:11:16.032Z,26.49
2017-07-20T05:11:56.494Z,26.52
2017-07-20T05:12:36.936Z,26.45
2017-07-20T05:13:17.408Z,26.45
2017-07-20T05:13:57.866Z,26.44
2017-07-20T05:14:38.322Z,26.48
2017-07-20T05:15:18.771Z,26.51
2017-07-20T05:15:59.222Z,26.41
2017-07-20T05:16:39.699Z,26.49
2017-07-20T05:17:20.154Z,26.52
2017-07-20T05:18:00.610Z,26.48
2017-07-20T05:18:41.065Z,26.48
2017-07-20T05:19:21.524Z,26.49
2017-07-20T05:20:01.980Z,26.48
2017-07-20T05:20:42.435Z,26.52
2017-07-20T05:21:22.886Z,26.46
2017-07-20T05:22:03.337Z,26.45
2017-07-20T05:22:43.791Z,26.48
2017-07-20T05:23:24.248Z,26.46
2017-07-20T05:24:04.701Z,26.49
2017-07-20T05:24:45.156Z,26.49
2017-07-20T05:25:25.605Z,26.46
2017-07-20T05:26:06.060Z,26.52
2017-07-20T05:26:46.510Z,26.45
2017-07-20T05:27:26.967Z,26.45
2017-07-20T05:28:07.419Z,26.46
2017-07-20T05:28:47.873Z,26.49
2017-07-20T05:29:28.320Z,26.52
2017-07-20T05:30:08.771Z,26.48
2017-07-20T05:30:49.216Z,26.49
2017-07-20T05:31:29.678Z,26.52
2017-07-20T05:32:10.142Z,26.48
2017-07-20T05:32:50.596Z,26.48
2017-07-20T05:33:31.053Z,26.48
2017-07-20T05:34:11.504Z,26.46
2017-07-20T05:34:51.955Z,26.48
2017-07-20T05:35:32.410Z,26.48
2017-07-20T05:36:12.860Z,26.49
2017-07-20T05:36:53.318Z,26.48
2017-07-20T05:37:33.795Z,26.48
2017-07-20T05:38:14.227Z,26.48
2017-07-20T05:38:54.683Z,26.55
2017-07-20T05:39:35.143Z,26.48
2017-07-20T05:40:15.598Z,26.49
2017-07-20T05:40:56.044Z,26.49
2017-07-20T05:41:36.502Z,26.48
2017-07-20T05:42:16.952Z,26.52
2017-07-20T05:42:57.403Z,26.49
2017-07-20T05:43:37.853Z,26.51
2017-07-20T05:44:18.311Z,26.49
2017-07-20T05:44:58.764Z,26.49
2017-07-20T05:45:39.220Z,26.49
2017-07-20T05:46:19.676Z,26.49
2017-07-20T05:47:00.133Z,26.52
2017-07-20T05:47:40.588Z,26.51
2017-07-20T05:48:21.042Z,26.48
2017-07-20T05:49:01.501Z,26.56
2017-07-20T05:49:41.953Z,26.49
2017-07-20T05:50:22.406Z,26.49
2017-07-20T05:51:02.858Z,26.48
2017-07-20T05:51:43.314Z,26.52
2017-07-20T05:52:23.774Z,26.52
2017-07-20T05:53:04.292Z,26.52
2017-07-20T05:53:44.755Z,26.51
2017-07-20T05:54:25.206Z,26.52
2017-07-20T05:55:05.661Z,26.59
2017-07-20T05:55:46.116Z,26.56
2017-07-20T05:56:26.579Z,26.52
2017-07-20T05:57:07.033Z,26.56
2017-07-20T05:57:47.485Z,26.51
2017-07-20T05:58:27.947Z,26.6
2017-07-20T05:59:08.401Z,26.6
2017-07-20T05:59:48.857Z,26.53
2017-07-20T06:00:29.310Z,26.59
2017-07-20T06:01:09.771Z,26.49
2017-07-20T06:01:50.223Z,26.52
2017-07-20T06:02:30.686Z,26.56
2017-07-20T06:03:11.149Z,26.55
2017-07-20T06:03:51.607Z,26.52
2017-07-20T06:04:32.040Z,26.53
2017-07-20T06:05:12.486Z,26.59
2017-07-20T06:05:52.937Z,26.55
2017-07-20T06:06:33.393Z,26.53
2017-07-20T06:07:13.936Z,26.61
2017-07-20T06:07:54.439Z,26.53
2017-07-20T06:08:34.870Z,26.53
2017-07-20T06:09:15.340Z,26.49
2017-07-20T06:09:55.864Z,26.56
2017-07-20T06:10:36.130Z,26.52
2017-07-20T06:11:16.544Z,26.53
2017-07-20T06:11:56.932Z,26.63
2017-07-20T06:12:37.329Z,26.59
2017-07-20T06:13:17.798Z,26.53
2017-07-20T06:13:58.232Z,26.63
2017-07-20T06:14:38.786Z,26.6
2017-07-20T06:16:26.342Z,26.66
2017-07-20T06:17:07.519Z,26.61
2017-07-20T06:17:47.938Z,26.63
2017-07-20T06:18:28.350Z,26.63
2017-07-20T06:19:08.771Z,26.59
2017-07-20T06:19:49.222Z,26.61
2017-07-20T06:20:29.559Z,26.55
2017-07-20T06:21:10.071Z,26.64
2017-07-20T06:21:50.504Z,26.61
2017-07-20T06:22:30.991Z,26.63
2017-07-20T06:23:11.429Z,26.51
2017-07-20T06:23:51.999Z,26.63
2017-07-20T06:24:32.416Z,26.6
2017-07-20T06:25:12.864Z,26.59
2017-07-20T06:25:53.250Z,26.66
2017-07-20T06:26:33.740Z,26.59
2017-07-20T06:27:14.162Z,26.64
2017-07-20T06:27:54.869Z,26.64
2017-07-20T06:29:32.312Z,26.59
2017-07-20T06:30:12.748Z,26.64
2017-07-20T06:30:53.163Z,26.63
2017-07-20T06:31:33.575Z,26.6
2017-07-20T06:32:14.107Z,26.61
2017-07-20T06:32:54.494Z,26.61
2017-07-20T06:33:34.954Z,26.6
2017-07-20T06:34:15.420Z,26.63
2017-07-20T06:34:55.824Z,26.64
2017-07-20T06:35:36.244Z,26.55
2017-07-20T06:37:33.850Z,26.67
2017-07-20T06:38:14.314Z,26.64
2017-07-20T06:38:54.726Z,26.6
2017-07-20T06:39:35.191Z,26.52
2017-07-20T06:40:15.667Z,26.61
2017-07-20T06:40:56.120Z,26.59
2017-07-20T06:41:36.570Z,26.61
2017-07-20T06:42:17.099Z,26.66
2017-07-20T06:42:57.534Z,26.67
2017-07-20T06:43:38.005Z,26.63
2017-07-20T06:44:18.432Z,26.59
2017-07-20T06:44:58.891Z,26.63
2017-07-20T06:45:39.343Z,26.64
2017-07-20T06:46:19.802Z,26.55
2017-07-20T06:47:00.255Z,26.68
2017-07-20T06:47:41.381Z,26.56
2017-07-20T06:48:21.837Z,26.6
2017-07-20T06:49:02.287Z,26.61
2017-07-20T06:49:42.748Z,26.61
2017-07-20T06:50:23.381Z,26.53
2017-07-20T06:51:03.833Z,26.64
2017-07-20T06:51:44.281Z,26.68
2017-07-20T06:52:24.733Z,26.66
2017-07-20T06:53:05.188Z,26.67
2017-07-20T06:53:45.626Z,26.64
2017-07-20T06:55:38.311Z,26.7
2017-07-20T06:56:18.708Z,26.63
2017-07-20T06:56:59.143Z,26.67
2017-07-20T06:57:39.571Z,26.66
2017-07-20T06:58:19.970Z,26.64
2017-07-20T06:59:00.424Z,26.73
2017-07-20T06:59:40.844Z,26.64
2017-07-20T07:00:21.303Z,26.59
2017-07-20T07:01:01.752Z,26.63
2017-07-20T07:01:42.207Z,26.67
2017-07-20T07:02:22.655Z,26.68
2017-07-20T07:03:03.106Z,26.66
2017-07-20T07:03:43.559Z,26.7
2017-07-20T07:04:24.010Z,26.64
2017-07-20T07:05:04.483Z,26.7
2017-07-20T07:05:44.932Z,26.68
2017-07-20T07:06:25.381Z,26.67
2017-07-20T07:07:05.848Z,26.68
2017-07-20T07:07:46.297Z,26.67
2017-07-20T07:08:26.747Z,26.64
2017-07-20T07:09:07.229Z,26.64
2017-07-20T07:09:47.682Z,26.67
2017-07-20T07:10:28.126Z,26.67
2017-07-20T07:11:08.587Z,26.73
2017-07-20T07:11:49.041Z,26.67
2017-07-20T07:12:29.507Z,26.68
2017-07-20T07:13:09.956Z,26.67
2017-07-20T07:13:50.405Z,26.7
2017-07-20T07:14:30.852Z,26.68
2017-07-20T07:15:11.306Z,26.64
2017-07-20T07:15:51.744Z,26.68
2017-07-20T07:16:32.204Z,26.64
2017-07-20T07:17:12.647Z,26.71
2017-07-20T07:17:53.155Z,26.64
2017-07-20T07:18:33.544Z,26.68
2017-07-20T07:19:13.997Z,26.64
2017-07-20T07:19:54.452Z,26.64
2017-07-20T07:20:34.896Z,26.68
2017-07-20T07:21:15.347Z,26.64
2017-07-20T07:21:55.804Z,26.68
2017-07-20T07:22:36.261Z,26.6
2017-07-20T07:23:16.715Z,26.64
2017-07-20T07:23:57.167Z,26.66
2017-07-20T07:24:37.627Z,26.68
2017-07-20T07:25:18.086Z,26.68
2017-07-20T07:25:58.541Z,26.67
2017-07-20T07:26:39.004Z,26.68
2017-07-20T07:27:19.454Z,26.78
2017-07-20T07:27:59.900Z,26.68
2017-07-20T07:28:40.360Z,26.64
2017-07-20T07:29:20.809Z,26.76
2017-07-20T07:30:01.256Z,26.67
2017-07-20T07:30:41.711Z,26.78
2017-07-20T07:31:22.162Z,26.73
2017-07-20T07:32:02.617Z,26.68
2017-07-20T07:32:43.071Z,26.73
2017-07-20T07:33:23.525Z,26.71
2017-07-20T07:34:03.967Z,26.74
2017-07-20T07:34:44.424Z,26.66
2017-07-20T07:35:24.880Z,26.78
2017-07-20T07:36:05.337Z,26.78
2017-07-20T07:36:45.797Z,26.73
2017-07-20T07:37:26.254Z,26.63
2017-07-20T07:38:06.714Z,26.73
2017-07-20T07:38:47.166Z,26.73
2017-07-20T07:39:27.620Z,26.73
2017-07-20T07:40:08.107Z,26.78
2017-07-20T07:40:48.559Z,26.78
2017-07-20T07:41:29.012Z,26.73
2017-07-20T07:42:09.460Z,26.66
2017-07-20T07:42:49.928Z,26.78
2017-07-20T07:43:30.365Z,26.74
2017-07-20T07:44:10.804Z,26.73
2017-07-20T07:44:51.259Z,26.73
2017-07-20T07:45:31.703Z,26.73
2017-07-20T07:46:12.155Z,26.74
2017-07-20T07:46:52.684Z,26.76
2017-07-20T07:47:33.139Z,26.79
2017-07-20T07:48:13.884Z,26.79
2017-07-20T07:48:54.336Z,26.78
2017-07-20T07:49:34.785Z,26.74
2017-07-20T07:50:15.226Z,26.76
2017-07-20T07:50:55.687Z,26.76
2017-07-20T07:51:36.136Z,26.82
2017-07-20T07:52:16.592Z,26.83
2017-07-20T07:52:57.045Z,26.79
2017-07-20T07:53:37.494Z,26.74
2017-07-20T07:54:17.946Z,26.76
2017-07-20T07:54:58.400Z,26.71
2017-07-20T07:55:38.855Z,26.7
2017-07-20T07:56:19.307Z,26.85
2017-07-20T07:56:59.761Z,26.81
2017-07-20T07:57:40.217Z,26.83
2017-07-20T07:58:20.675Z,26.81
2017-07-20T07:59:01.124Z,26.82
2017-07-20T07:59:41.581Z,26.78
2017-07-20T08:00:22.041Z,26.86
2017-07-20T08:01:02.495Z,26.79
2017-07-20T08:01:42.949Z,26.88
2017-07-20T08:02:23.405Z,26.92
2017-07-20T08:03:03.855Z,26.85
2017-07-20T08:03:44.320Z,26.88
2017-07-20T08:04:24.772Z,26.86
2017-07-20T08:05:05.223Z,26.91
2017-07-20T08:05:45.675Z,26.85
2017-07-20T08:06:26.138Z,26.89
2017-07-20T08:07:06.600Z,26.89
2017-07-20T08:07:47.135Z,26.86
2017-07-20T08:08:27.510Z,26.96
2017-07-20T08:09:07.971Z,26.97
2017-07-20T08:09:48.433Z,27.04
2017-07-20T08:10:28.886Z,27
2017-07-20T08:11:09.336Z,27.07
2017-07-20T08:11:49.787Z,27.11
2017-07-20T08:12:30.375Z,27.1
2017-07-20T08:13:10.681Z,27.18
2017-07-20T08:13:51.139Z,27.19
2017-07-20T08:14:31.600Z,27.18
2017-07-20T08:15:12.060Z,27.16
2017-07-20T08:15:52.519Z,27.19
2017-07-20T08:16:32.977Z,27.28
2017-07-20T08:17:13.568Z,27.2
2017-07-20T08:17:54.159Z,27.22
2017-07-20T08:18:34.605Z,27.26
2017-07-20T08:19:15.055Z,27.28
2017-07-20T08:19:55.509Z,27.18
2017-07-20T08:20:35.963Z,27.25
2017-07-20T08:21:16.399Z,27.11
2017-07-20T08:21:56.855Z,27.23
2017-07-20T08:22:37.302Z,27.19
2017-07-20T08:23:17.766Z,27.2
2017-07-20T08:23:58.217Z,27.19
2017-07-20T08:24:38.675Z,27.25
2017-07-20T08:25:19.129Z,27.25
2017-07-20T08:25:59.578Z,27.16
2017-07-20T08:26:40.036Z,27.22
2017-07-20T08:27:20.499Z,27.19
2017-07-20T08:28:00.951Z,27.19
2017-07-20T08:28:41.381Z,27.15
2017-07-20T08:29:21.828Z,27.16
2017-07-20T08:30:02.295Z,27.15
2017-07-20T08:30:42.741Z,27.13
2017-07-20T08:31:23.170Z,27.15
2017-07-20T08:32:03.685Z,27.18
2017-07-20T08:32:44.116Z,27.16
2017-07-20T08:33:24.556Z,27.08
2017-07-20T08:34:05.363Z,27.16
2017-07-20T08:34:45.819Z,27.19
2017-07-20T08:35:26.269Z,27.15
2017-07-20T08:36:06.891Z,27.16
2017-07-20T08:36:47.347Z,27.08
2017-07-20T08:37:27.796Z,27.13
2017-07-20T08:38:08.246Z,27.13
2017-07-20T08:38:48.701Z,27.07
2017-07-20T08:39:29.156Z,27.16
2017-07-20T08:40:09.608Z,27.15
2017-07-20T08:40:50.179Z,27.16
2017-07-20T08:41:30.534Z,27.18
2017-07-20T08:42:11.153Z,27.23
2017-07-20T08:42:52.050Z,27.16
2017-07-20T08:43:32.492Z,27.22
2017-07-20T08:44:12.945Z,27.13
2017-07-20T08:44:53.396Z,27.23
2017-07-20T08:45:33.850Z,27.18
2017-07-20T08:46:14.302Z,27.2
2017-07-20T08:46:54.885Z,27.22
2017-07-20T08:47:35.341Z,27.23
2017-07-20T08:48:15.804Z,27.29
2017-07-20T08:48:56.332Z,27.22
2017-07-20T08:49:36.914Z,27.22
2017-07-20T08:50:18.264Z,27.22
2017-07-20T08:50:58.390Z,27.26
2017-07-20T08:51:38.823Z,27.29
2017-07-20T08:52:19.237Z,27.22